createdAt,value
2018-02-27T00:00:19.000Z,-7.94
2018-02-27T00:02:18.754Z,-8.15
2018-02-27T00:03:18.807Z,-8.21
2018-02-27T00:05:19.047Z,-8.16
2018-02-27T00:06:19.048Z,-8.21
2018-02-27T00:07:19.055Z,-8.21
2018-02-27T00:09:19.099Z,-8.13
2018-02-27T00:10:19.082Z,-8.12
2018-02-27T00:11:19.094Z,-8.23
2018-02-27T00:12:19.100Z,-8.21
2018-02-27T00:13:19.125Z,-8.23
2018-02-27T00:14:19.128Z,-8.26
2018-02-27T00:15:19.132Z,-8.24
2018-02-27T00:16:18.884Z,-8.21
2018-02-27T00:17:19.137Z,-8.29
2018-02-27T00:18:19.161Z,-8.26
2018-02-27T00:20:19.184Z,-8.15
2018-02-27T00:22:19.206Z,-8.13
2018-02-27T00:24:19.210Z,-8.16
2018-02-27T00:25:19.229Z,-8.19
2018-02-27T00:26:19.229Z,-8.18
2018-02-27T00:27:19.242Z,-8.23
2018-02-27T00:28:18.976Z,-8.18
2018-02-27T00:29:19.009Z,-8.15
2018-02-27T00:30:19.272Z,-8.13
2018-02-27T00:31:19.262Z,-8.15
2018-02-27T00:34:19.281Z,-8.12
2018-02-27T00:35:18.781Z,-8.27
2018-02-27T00:36:19.309Z,-8.13
2018-02-27T00:38:19.313Z,-8.3
2018-02-27T00:39:19.325Z,-8.31
2018-02-27T00:40:19.342Z,-8.26
2018-02-27T00:41:19.340Z,-8.3
2018-02-27T00:42:19.099Z,-8.33
2018-02-27T00:43:34.014Z,-8.33
2018-02-27T00:44:19.370Z,-8.33
2018-02-27T00:45:33.775Z,-8.24
2018-02-27T00:46:19.387Z,-8.26
2018-02-27T00:47:19.396Z,-8.16
2018-02-27T00:48:19.401Z,-8.31
2018-02-27T00:49:34.071Z,-8.21
2018-02-27T00:50:19.437Z,-8.37
2018-02-27T00:51:19.437Z,-8.48
2018-02-27T00:52:19.457Z,-8.44
2018-02-27T00:53:19.456Z,-8.51
2018-02-27T00:54:19.471Z,-8.51
2018-02-27T00:55:19.466Z,-8.44
2018-02-27T00:56:19.221Z,-8.39
2018-02-27T00:57:19.492Z,-8.48
2018-02-27T00:58:19.222Z,-8.44
2018-02-27T00:59:19.514Z,-8.44
2018-02-27T01:00:34.153Z,-8.47
2018-02-27T01:01:19.513Z,-8.5
2018-02-27T01:02:19.516Z,-8.47
2018-02-27T01:03:19.536Z,-8.45
2018-02-27T01:04:19.535Z,-8.42
2018-02-27T01:06:19.550Z,-8.45
2018-02-27T01:08:19.572Z,-8.24
2018-02-27T01:09:19.597Z,-8.34
2018-02-27T01:10:19.596Z,-8.37
2018-02-27T01:11:19.335Z,-8.4
2018-02-27T01:12:19.605Z,-8.5
2018-02-27T01:13:19.613Z,-8.5
2018-02-27T01:14:19.362Z,-8.45
2018-02-27T01:15:19.632Z,-8.6
2018-02-27T01:16:19.384Z,-8.62
2018-02-27T01:17:19.639Z,-8.62
2018-02-27T01:18:19.651Z,-8.72
2018-02-27T01:19:19.658Z,-8.63
2018-02-27T01:20:19.672Z,-8.6
2018-02-27T01:22:19.679Z,-8.6
2018-02-27T01:23:19.693Z,-8.68
2018-02-27T01:24:19.714Z,-8.69
2018-02-27T01:25:19.723Z,-8.63
2018-02-27T01:26:19.735Z,-8.68
2018-02-27T01:27:19.717Z,-8.62
2018-02-27T01:28:19.729Z,-8.69
2018-02-27T01:29:19.746Z,-8.72
2018-02-27T01:31:19.773Z,-8.66
2018-02-27T01:32:19.758Z,-8.68
2018-02-27T01:33:19.769Z,-8.66
2018-02-27T01:34:34.453Z,-8.73
2018-02-27T01:35:34.454Z,-8.75
2018-02-27T01:36:34.467Z,-8.73
2018-02-27T01:37:19.550Z,-8.7
2018-02-27T01:38:19.819Z,-8.7
2018-02-27T01:39:19.831Z,-8.76
2018-02-27T01:40:19.829Z,-8.76
2018-02-27T01:41:19.835Z,-8.8
2018-02-27T01:42:34.507Z,-8.69
2018-02-27T01:43:19.851Z,-8.78
2018-02-27T01:45:19.875Z,-8.65
2018-02-27T01:46:34.532Z,-8.66
2018-02-27T01:47:19.626Z,-8.63
2018-02-27T01:48:19.903Z,-8.58
2018-02-27T01:49:19.917Z,-8.63
2018-02-27T01:50:19.912Z,-8.7
2018-02-27T01:51:19.941Z,-8.7
2018-02-27T01:52:19.936Z,-8.75
2018-02-27T01:53:19.935Z,-8.81
2018-02-27T01:54:19.960Z,-8.78
2018-02-27T01:55:19.961Z,-8.93
2018-02-27T01:56:19.975Z,-9.05
2018-02-27T01:57:19.965Z,-9.1
2018-02-27T01:58:19.462Z,-9.08
2018-02-27T01:59:19.994Z,-9.15
2018-02-27T02:00:34.648Z,-9.14
2018-02-27T02:01:20.009Z,-9.1
2018-02-27T02:02:19.757Z,-9.11
2018-02-27T02:03:20.065Z,-9.22
2018-02-27T02:05:20.046Z,-9.22
2018-02-27T02:07:20.059Z,-9.22
2018-02-27T02:08:34.711Z,-9.22
2018-02-27T02:09:20.074Z,-9.18
2018-02-27T02:10:20.074Z,-9.26
2018-02-27T02:11:20.086Z,-9.3
2018-02-27T02:12:34.493Z,-9.48
2018-02-27T02:13:19.846Z,-9.44
2018-02-27T02:14:20.108Z,-9.29
2018-02-27T02:15:19.870Z,-9.29
2018-02-27T02:16:19.858Z,-9.36
2018-02-27T02:17:34.785Z,-9.23
2018-02-27T02:18:19.885Z,-9.19
2018-02-27T02:19:20.147Z,-9.18
2018-02-27T02:20:20.155Z,-9.14
2018-02-27T02:21:20.167Z,-9.22
2018-02-27T02:22:20.190Z,-9.26
2018-02-27T02:23:20.174Z,-9.28
2018-02-27T02:24:34.852Z,-9.22
2018-02-27T02:25:20.193Z,-9.32
2018-02-27T02:27:19.956Z,-9.52
2018-02-27T02:28:20.219Z,-9.68
2018-02-27T02:29:20.242Z,-9.71
2018-02-27T02:30:20.233Z,-9.8
2018-02-27T02:31:20.249Z,-9.9
2018-02-27T02:32:20.273Z,-9.87
2018-02-27T02:33:20.272Z,-9.89
2018-02-27T02:34:20.277Z,-9.76
2018-02-27T02:35:34.947Z,-9.8
2018-02-27T02:36:34.951Z,-9.89
2018-02-27T02:37:20.294Z,-9.98
2018-02-27T02:38:20.312Z,-10.04
2018-02-27T02:39:20.337Z,-10.01
2018-02-27T02:40:34.969Z,-10
2018-02-27T02:41:20.071Z,-9.94
2018-02-27T02:42:19.812Z,-9.98
2018-02-27T02:43:20.086Z,-10.05
2018-02-27T02:44:20.342Z,-9.92
2018-02-27T02:46:20.369Z,-9.83
2018-02-27T02:47:20.385Z,-9.9
2018-02-27T02:48:20.391Z,-9.79
2018-02-27T02:49:20.385Z,-9.81
2018-02-27T02:50:35.050Z,-9.8
2018-02-27T02:51:20.407Z,-9.83
2018-02-27T02:52:20.156Z,-9.72
2018-02-27T02:53:20.421Z,-9.86
2018-02-27T02:54:20.424Z,-9.74
2018-02-27T02:55:20.190Z,-9.66
2018-02-27T02:56:35.104Z,-9.74
2018-02-27T02:57:20.444Z,-9.72
2018-02-27T02:58:20.458Z,-9.95
2018-02-27T02:59:20.460Z,-9.83
2018-02-27T03:00:35.131Z,-9.92
2018-02-27T03:01:20.236Z,-9.94
2018-02-27T03:02:20.244Z,-9.89
2018-02-27T03:03:20.506Z,-9.69
2018-02-27T03:04:20.523Z,-9.69
2018-02-27T03:05:20.525Z,-9.77
2018-02-27T03:06:20.273Z,-9.74
2018-02-27T03:08:20.553Z,-9.92
2018-02-27T03:09:20.539Z,-9.77
2018-02-27T03:10:35.215Z,-9.8
2018-02-27T03:11:35.216Z,-9.77
2018-02-27T03:12:20.581Z,-9.79
2018-02-27T03:14:20.591Z,-9.77
2018-02-27T03:15:34.998Z,-9.77
2018-02-27T03:16:20.612Z,-9.86
2018-02-27T03:17:20.354Z,-9.89
2018-02-27T03:18:20.616Z,-9.79
2018-02-27T03:19:20.632Z,-9.76
2018-02-27T03:20:20.632Z,-9.79
2018-02-27T03:21:20.388Z,-9.77
2018-02-27T03:22:20.655Z,-9.77
2018-02-27T03:23:20.674Z,-9.8
2018-02-27T03:24:20.662Z,-9.86
2018-02-27T03:25:20.686Z,-9.83
2018-02-27T03:26:35.342Z,-9.86
2018-02-27T03:27:20.691Z,-9.89
2018-02-27T03:28:20.713Z,-9.92
2018-02-27T03:29:20.696Z,-9.9
2018-02-27T03:30:20.731Z,-9.95
2018-02-27T03:31:20.741Z,-9.98
2018-02-27T03:32:20.722Z,-10.1
2018-02-27T03:33:20.739Z,-10.22
2018-02-27T03:34:20.756Z,-10.34
2018-02-27T03:35:20.484Z,-10.31
2018-02-27T03:36:20.766Z,-10.36
2018-02-27T03:37:20.765Z,-10.33
2018-02-27T03:38:20.777Z,-10.34
2018-02-27T03:39:35.450Z,-10.37
2018-02-27T03:40:20.796Z,-10.28
2018-02-27T03:41:20.808Z,-10.26
2018-02-27T03:42:20.810Z,-10.21
2018-02-27T03:43:35.208Z,-10.22
2018-02-27T03:44:20.825Z,-10.19
2018-02-27T03:45:20.832Z,-10.23
2018-02-27T03:46:20.837Z,-10.23
2018-02-27T03:47:20.582Z,-10.19
2018-02-27T03:48:20.601Z,-10.22
2018-02-27T03:49:20.863Z,-10.13
2018-02-27T03:50:20.870Z,-10.19
2018-02-27T03:51:20.870Z,-10.21
2018-02-27T03:52:20.884Z,-10.19
2018-02-27T03:53:20.882Z,-10.07
2018-02-27T03:54:20.636Z,-10.05
2018-02-27T03:55:20.899Z,-10.08
2018-02-27T03:56:20.666Z,-10.16
2018-02-27T03:57:35.584Z,-10.18
2018-02-27T03:58:20.940Z,-10.12
2018-02-27T03:59:35.593Z,-10.12
2018-02-27T04:00:20.959Z,-10.04
2018-02-27T04:01:20.970Z,-10.08
2018-02-27T04:02:20.981Z,-10.19
2018-02-27T04:03:20.969Z,-10.23
2018-02-27T04:04:20.722Z,-10.18
2018-02-27T04:05:20.981Z,-10.16
2018-02-27T04:06:21.005Z,-10.22
2018-02-27T04:07:20.739Z,-10.19
2018-02-27T04:08:21.128Z,-10.21
2018-02-27T04:09:21.012Z,-10.13
2018-02-27T04:10:21.034Z,-10.21
2018-02-27T04:11:21.033Z,-10.21
2018-02-27T04:12:21.036Z,-10.19
2018-02-27T04:13:20.780Z,-10.22
2018-02-27T04:14:20.851Z,-10.18
2018-02-27T04:15:35.709Z,-10.18
2018-02-27T04:16:21.082Z,-10.19
2018-02-27T04:17:21.079Z,-10.05
2018-02-27T04:18:21.079Z,-10.19
2018-02-27T04:19:21.092Z,-10.34
2018-02-27T04:20:21.102Z,-10.28
2018-02-27T04:21:21.121Z,-10.36
2018-02-27T04:22:21.118Z,-10.19
2018-02-27T04:23:20.882Z,-10.23
2018-02-27T04:24:21.136Z,-10.37
2018-02-27T04:25:21.134Z,-10.34
2018-02-27T04:26:35.795Z,-10.34
2018-02-27T04:27:21.156Z,-10.19
2018-02-27T04:28:21.167Z,-10.15
2018-02-27T04:29:21.188Z,-10.13
2018-02-27T04:30:21.185Z,-10.21
2018-02-27T04:32:20.941Z,-10.18
2018-02-27T04:33:20.946Z,-10.22
2018-02-27T04:34:21.214Z,-10.21
2018-02-27T04:35:21.207Z,-10.19
2018-02-27T04:37:21.224Z,-10.15
2018-02-27T04:38:21.235Z,-10.23
2018-02-27T04:40:21.247Z,-10.19
2018-02-27T04:41:21.265Z,-10.22
2018-02-27T04:42:21.274Z,-10.19
2018-02-27T04:43:35.940Z,-10.19
2018-02-27T04:44:21.289Z,-10.23
2018-02-27T04:45:35.954Z,-10.31
2018-02-27T04:46:35.961Z,-10.31
2018-02-27T04:47:21.309Z,-10.33
2018-02-27T04:48:35.982Z,-10.33
2018-02-27T04:49:21.322Z,-10.21
2018-02-27T04:50:21.077Z,-10.25
2018-02-27T04:52:21.359Z,-10.34
2018-02-27T04:53:21.375Z,-10.57
2018-02-27T04:54:36.014Z,-10.69
2018-02-27T04:55:21.108Z,-10.68
2018-02-27T04:56:21.378Z,-10.61
2018-02-27T04:57:21.393Z,-10.71
2018-02-27T04:58:35.783Z,-10.79
2018-02-27T04:59:21.399Z,-10.69
2018-02-27T05:00:21.417Z,-10.72
2018-02-27T05:01:20.897Z,-10.76
2018-02-27T05:02:21.420Z,-10.93
2018-02-27T05:03:21.424Z,-10.93
2018-02-27T05:04:21.463Z,-10.94
2018-02-27T05:05:21.445Z,-10.94
2018-02-27T05:06:21.460Z,-10.95
2018-02-27T05:07:21.470Z,-10.93
2018-02-27T05:08:21.461Z,-10.91
2018-02-27T05:09:21.485Z,-11
2018-02-27T05:10:21.232Z,-10.94
2018-02-27T05:11:21.503Z,-10.75
2018-02-27T05:12:21.504Z,-10.88
2018-02-27T05:13:21.508Z,-10.98
2018-02-27T05:14:21.522Z,-10.93
2018-02-27T05:15:21.520Z,-10.9
2018-02-27T05:16:21.604Z,-10.78
2018-02-27T05:17:21.286Z,-10.82
2018-02-27T05:18:36.199Z,-10.71
2018-02-27T05:19:21.548Z,-10.62
2018-02-27T05:20:21.562Z,-10.65
2018-02-27T05:21:21.563Z,-10.73
2018-02-27T05:22:21.579Z,-10.75
2018-02-27T05:23:21.319Z,-10.88
2018-02-27T05:25:21.600Z,-10.93
2018-02-27T05:26:21.606Z,-10.98
2018-02-27T05:27:21.614Z,-10.81
2018-02-27T05:28:21.362Z,-10.73
2018-02-27T05:29:21.640Z,-10.75
2018-02-27T05:30:21.636Z,-10.71
2018-02-27T05:31:21.648Z,-10.69
2018-02-27T05:32:21.654Z,-10.78
2018-02-27T05:33:21.666Z,-10.71
2018-02-27T05:34:36.347Z,-10.62
2018-02-27T05:35:21.695Z,-10.71
2018-02-27T05:36:36.340Z,-10.81
2018-02-27T05:37:21.688Z,-10.75
2018-02-27T05:38:21.699Z,-10.72
2018-02-27T05:39:21.702Z,-10.64
2018-02-27T05:40:21.552Z,-10.75
2018-02-27T05:41:21.710Z,-10.95
2018-02-27T05:42:21.476Z,-10.95
2018-02-27T05:43:21.494Z,-10.94
2018-02-27T05:44:21.727Z,-10.81
2018-02-27T05:45:21.497Z,-10.93
2018-02-27T05:46:21.761Z,-10.95
2018-02-27T05:47:36.153Z,-11.03
2018-02-27T05:48:21.771Z,-11.04
2018-02-27T05:49:21.559Z,-11.03
2018-02-27T05:50:36.184Z,-11.11
2018-02-27T05:51:21.814Z,-11.15
2018-02-27T05:52:21.801Z,-11.18
2018-02-27T05:53:21.539Z,-11.13
2018-02-27T05:54:21.824Z,-11.16
2018-02-27T05:55:21.816Z,-10.97
2018-02-27T05:56:21.823Z,-11.11
2018-02-27T05:57:21.847Z,-11.21
2018-02-27T05:58:21.857Z,-11.12
2018-02-27T05:59:21.844Z,-11.19
2018-02-27T06:00:21.598Z,-11.21
2018-02-27T06:01:21.645Z,-11.03
2018-02-27T06:02:21.896Z,-11.04
2018-02-27T06:03:21.896Z,-11.08
2018-02-27T06:04:21.683Z,-11.16
2018-02-27T06:05:21.892Z,-11.21
2018-02-27T06:06:36.563Z,-11.15
2018-02-27T06:07:21.909Z,-11.04
2018-02-27T06:08:21.914Z,-11.16
2018-02-27T06:11:21.938Z,-11.01
2018-02-27T06:12:21.961Z,-10.9
2018-02-27T06:13:21.701Z,-10.88
2018-02-27T06:14:21.969Z,-10.86
2018-02-27T06:15:21.715Z,-10.81
2018-02-27T06:16:21.981Z,-10.72
2018-02-27T06:17:21.982Z,-10.68
2018-02-27T06:18:21.990Z,-10.46
2018-02-27T06:19:21.995Z,-10.41
2018-02-27T06:20:22.060Z,-10.36
2018-02-27T06:22:22.034Z,-10.31
2018-02-27T06:23:22.041Z,-10.36
2018-02-27T06:24:22.042Z,-10.34
2018-02-27T06:25:22.070Z,-10.25
2018-02-27T06:26:36.760Z,-10.34
2018-02-27T06:27:22.073Z,-10.3
2018-02-27T06:28:21.808Z,-10.21
2018-02-27T06:29:22.085Z,-10.21
2018-02-27T06:30:22.103Z,-10.05
2018-02-27T06:31:36.748Z,-10
2018-02-27T06:32:22.113Z,-10.01
2018-02-27T06:33:22.115Z,-9.92
2018-02-27T06:34:22.142Z,-9.79
2018-02-27T06:35:22.132Z,-9.69
2018-02-27T06:36:22.149Z,-9.65
2018-02-27T06:37:22.246Z,-9.52
2018-02-27T06:38:22.167Z,-9.5
2018-02-27T06:39:21.907Z,-9.36
2018-02-27T06:40:21.931Z,-9.23
2018-02-27T06:41:22.189Z,-9.14
2018-02-27T06:42:22.200Z,-9.02
2018-02-27T06:43:22.224Z,-8.94
2018-02-27T06:44:21.966Z,-8.81
2018-02-27T06:45:22.224Z,-8.78
2018-02-27T06:46:22.265Z,-8.7
2018-02-27T06:47:22.301Z,-8.57
2018-02-27T06:48:22.018Z,-8.42
2018-02-27T06:50:22.282Z,-8.23
2018-02-27T06:51:22.042Z,-8.13
2018-02-27T06:52:36.978Z,-8.05
2018-02-27T06:53:36.989Z,-7.87
2018-02-27T06:54:22.339Z,-7.73
2018-02-27T06:55:22.413Z,-7.69
2018-02-27T06:56:22.359Z,-7.71
2018-02-27T06:57:22.383Z,-7.68
2018-02-27T06:58:22.483Z,-7.6
2018-02-27T07:00:22.691Z,-7.43
2018-02-27T07:01:22.436Z,-7.58
2018-02-27T07:02:22.454Z,-7.58
2018-02-27T07:03:22.453Z,-7.5
2018-02-27T07:04:22.467Z,-7.55
2018-02-27T07:05:21.966Z,-7.44
2018-02-27T07:06:22.640Z,-7.54
2018-02-27T07:08:22.258Z,-7.46
2018-02-27T07:09:37.178Z,-7.41
2018-02-27T07:11:22.543Z,-7.33
2018-02-27T07:12:22.601Z,-7.39
2018-02-27T07:13:22.585Z,-7.3
2018-02-27T07:14:22.580Z,-7.36
2018-02-27T07:15:22.597Z,-7.34
2018-02-27T07:17:22.609Z,-7.22
2018-02-27T07:18:22.618Z,-7.29
2018-02-27T07:19:22.634Z,-7.19
2018-02-27T07:20:22.654Z,-7.21
2018-02-27T07:21:22.649Z,-7.15
2018-02-27T07:22:22.406Z,-7.02
2018-02-27T07:23:37.341Z,-6.89
2018-02-27T07:24:22.433Z,-6.8
2018-02-27T07:25:37.352Z,-6.8
2018-02-27T07:26:22.712Z,-6.66
2018-02-27T07:27:22.199Z,-6.46
2018-02-27T07:28:22.728Z,-6.4
2018-02-27T07:30:22.758Z,-6.36
2018-02-27T07:31:22.775Z,-6.29
2018-02-27T07:32:22.786Z,-6.32
2018-02-27T07:33:22.796Z,-6.25
2018-02-27T07:35:37.518Z,-5.98
2018-02-27T07:36:22.574Z,-6
2018-02-27T07:37:22.835Z,-5.98
2018-02-27T07:38:22.848Z,-5.86
2018-02-27T07:39:22.602Z,-5.75
2018-02-27T07:40:22.902Z,-5.69
2018-02-27T07:41:37.556Z,-5.66
2018-02-27T07:42:22.921Z,-5.57
2018-02-27T07:43:22.923Z,-5.47
2018-02-27T07:44:22.938Z,-5.47
2018-02-27T07:45:22.947Z,-5.41
2018-02-27T07:46:22.968Z,-5.43
2018-02-27T07:47:22.715Z,-5.36
2018-02-27T07:48:22.727Z,-5.32
2018-02-27T07:49:23.006Z,-5.33
2018-02-27T07:50:23.028Z,-5.39
2018-02-27T07:51:23.039Z,-5.27
2018-02-27T07:52:23.051Z,-5.39
2018-02-27T07:53:23.061Z,-5.39
2018-02-27T07:54:23.080Z,-5.32
2018-02-27T07:55:23.088Z,-5.37
2018-02-27T07:56:37.500Z,-5.36
2018-02-27T07:57:22.862Z,-5.19
2018-02-27T07:58:37.788Z,-5.03
2018-02-27T07:59:23.165Z,-4.89
2018-02-27T08:00:23.151Z,-4.78
2018-02-27T08:01:23.166Z,-4.81
2018-02-27T08:02:23.181Z,-4.65
2018-02-27T08:03:23.199Z,-4.58
2018-02-27T08:04:23.208Z,-4.57
2018-02-27T08:05:22.979Z,-4.47
2018-02-27T08:06:23.252Z,-4.35
2018-02-27T08:07:23.250Z,-4.28
2018-02-27T08:08:23.265Z,-4.24
2018-02-27T08:09:23.272Z,-4.04
2018-02-27T08:10:23.285Z,-3.85
2018-02-27T08:11:23.301Z,-3.9
2018-02-27T08:12:23.325Z,-3.85
2018-02-27T08:13:23.337Z,-3.76
2018-02-27T08:14:23.337Z,-3.6
2018-02-27T08:15:23.389Z,-3.36
2018-02-27T08:16:23.373Z,-3.09
2018-02-27T08:17:23.404Z,-2.88
2018-02-27T08:18:23.411Z,-2.71
2018-02-27T08:19:23.429Z,-2.55
2018-02-27T08:20:38.084Z,-2.42
2018-02-27T08:21:23.452Z,-2.35
2018-02-27T08:22:23.466Z,-2.27
2018-02-27T08:23:23.483Z,-2.23
2018-02-27T08:24:22.962Z,-2.13
2018-02-27T08:25:23.257Z,-2.16
2018-02-27T08:26:23.524Z,-2.42
2018-02-27T08:27:23.529Z,-2.64
2018-02-27T08:28:38.239Z,-2.58
2018-02-27T08:29:23.573Z,-2.58
2018-02-27T08:30:38.237Z,-2.68
2018-02-27T08:31:23.324Z,-2.67
2018-02-27T08:32:23.606Z,-2.66
2018-02-27T08:33:23.620Z,-2.58
2018-02-27T08:34:23.628Z,-2.43
2018-02-27T08:35:23.378Z,-2.49
2018-02-27T08:36:23.649Z,-2.67
2018-02-27T08:37:23.664Z,-2.71
2018-02-27T08:38:23.681Z,-2.68
2018-02-27T08:39:23.692Z,-2.64
2018-02-27T08:40:23.704Z,-2.82
2018-02-27T08:41:23.733Z,-2.88
2018-02-27T08:42:23.485Z,-3.07
2018-02-27T08:43:23.485Z,-3.1
2018-02-27T08:44:38.161Z,-2.77
2018-02-27T08:45:23.770Z,-2.82
2018-02-27T08:46:23.792Z,-2.61
2018-02-27T08:47:23.802Z,-2.63
2018-02-27T08:48:23.550Z,-2.66
2018-02-27T08:49:23.820Z,-2.61
2018-02-27T08:50:23.572Z,-2.61
2018-02-27T08:51:23.842Z,-2.53
2018-02-27T08:52:23.855Z,-2.49
2018-02-27T08:53:23.872Z,-2.7
2018-02-27T08:54:23.898Z,-2.67
2018-02-27T08:55:23.896Z,-2.55
2018-02-27T08:56:23.655Z,-2.43
2018-02-27T08:57:38.323Z,-2.49
2018-02-27T08:58:23.676Z,-2.4
2018-02-27T08:59:23.952Z,-2.26
2018-02-27T09:00:38.626Z,-2.27
2018-02-27T09:01:23.985Z,-2.08
2018-02-27T09:02:23.994Z,-2.21
2018-02-27T09:03:24.015Z,-2.08
2018-02-27T09:04:38.671Z,-2.03
2018-02-27T09:05:24.045Z,-1.95
2018-02-27T09:06:24.048Z,-2
2018-02-27T09:07:23.798Z,-1.9
2018-02-27T09:08:23.805Z,-1.87
2018-02-27T09:09:24.080Z,-1.8
2018-02-27T09:10:24.092Z,-1.74
2018-02-27T09:11:24.117Z,-1.79
2018-02-27T09:12:24.121Z,-1.84
2018-02-27T09:13:24.133Z,-1.8
2018-02-27T09:14:24.143Z,-1.91
2018-02-27T09:15:23.886Z,-1.92
2018-02-27T09:16:38.817Z,-1.85
2018-02-27T09:17:24.192Z,-1.8
2018-02-27T09:18:24.186Z,-1.88
2018-02-27T09:19:24.354Z,-1.9
2018-02-27T09:20:24.348Z,-1.76
2018-02-27T09:21:24.225Z,-1.91
2018-02-27T09:22:23.997Z,-1.8
2018-02-27T09:23:38.915Z,-1.64
2018-02-27T09:24:24.021Z,-1.67
2018-02-27T09:25:24.021Z,-1.55
2018-02-27T09:26:24.298Z,-1.64
2018-02-27T09:27:24.051Z,-1.8
2018-02-27T09:28:24.326Z,-1.91
2018-02-27T09:29:24.083Z,-1.9
2018-02-27T09:30:24.352Z,-1.94
2018-02-27T09:31:39.035Z,-1.82
2018-02-27T09:32:24.386Z,-1.76
2018-02-27T09:33:24.397Z,-1.66
2018-02-27T09:34:24.142Z,-1.67
2018-02-27T09:35:24.437Z,-1.8
2018-02-27T09:36:24.448Z,-1.73
2018-02-27T09:37:24.454Z,-1.74
2018-02-27T09:38:39.146Z,-1.73
2018-02-27T09:39:39.137Z,-1.82
2018-02-27T09:40:39.167Z,-1.92
2018-02-27T09:41:24.510Z,-2.02
2018-02-27T09:42:24.525Z,-1.95
2018-02-27T09:43:24.271Z,-1.97
2018-02-27T09:44:24.550Z,-1.82
2018-02-27T09:45:24.301Z,-1.74
2018-02-27T09:46:24.589Z,-1.67
2018-02-27T09:47:24.608Z,-1.82
2018-02-27T09:49:24.624Z,-1.84
2018-02-27T09:50:24.636Z,-1.64
2018-02-27T09:51:24.649Z,-1.54
2018-02-27T09:52:24.661Z,-1.35
2018-02-27T09:53:24.683Z,-1.3
2018-02-27T09:55:39.358Z,-0.99
2018-02-27T09:56:24.770Z,-0.95
2018-02-27T09:57:24.732Z,-0.97
2018-02-27T09:58:24.744Z,-0.94
2018-02-27T10:00:24.520Z,-0.89
2018-02-27T10:01:24.816Z,-0.85
2018-02-27T10:02:24.808Z,-1.04
2018-02-27T10:03:39.477Z,-1.31
2018-02-27T10:04:24.840Z,-1.27
2018-02-27T10:05:24.851Z,-1.16
2018-02-27T10:06:24.865Z,-0.99
2018-02-27T10:07:24.360Z,-1.01
2018-02-27T10:08:24.636Z,-0.85
2018-02-27T10:09:24.908Z,-1.02
2018-02-27T10:10:24.399Z,-1.02
2018-02-27T10:11:24.945Z,-0.86
2018-02-27T10:12:24.959Z,-0.91
2018-02-27T10:14:24.994Z,-1.17
2018-02-27T10:15:25.010Z,-1.33
2018-02-27T10:16:25.007Z,-1.74
2018-02-27T10:17:25.028Z,-2.09
2018-02-27T10:18:25.059Z,-2.16
2018-02-27T10:19:39.727Z,-1.9
2018-02-27T10:20:25.074Z,-1.74
2018-02-27T10:23:24.861Z,-2
2018-02-27T10:25:25.149Z,-1.88
2018-02-27T10:26:24.898Z,-1.74
2018-02-27T10:27:24.938Z,-1.61
2018-02-27T10:28:24.924Z,-1.58
2018-02-27T10:29:25.216Z,-1.4
2018-02-27T10:30:39.933Z,-1.52
2018-02-27T10:31:25.227Z,-1.74
2018-02-27T10:32:25.239Z,-1.59
2018-02-27T10:33:24.991Z,-1.8
2018-02-27T10:34:25.265Z,-1.84
2018-02-27T10:35:39.938Z,-1.72
2018-02-27T10:36:25.295Z,-1.46
2018-02-27T10:37:25.319Z,-1.38
2018-02-27T10:38:25.076Z,-1.17
2018-02-27T10:39:25.382Z,-1.02
2018-02-27T10:40:25.350Z,-0.82
2018-02-27T10:41:25.387Z,-1.13
2018-02-27T10:43:40.055Z,-0.89
2018-02-27T10:44:25.148Z,-0.94
2018-02-27T10:45:25.499Z,-1.01
2018-02-27T10:46:25.580Z,-1.02
2018-02-27T10:47:25.203Z,-1.13
2018-02-27T10:48:25.471Z,-1.2
2018-02-27T10:49:25.474Z,-0.98
2018-02-27T10:50:25.517Z,-1.01
2018-02-27T10:51:40.175Z,-0.89
2018-02-27T10:52:25.517Z,-0.89
2018-02-27T10:53:25.282Z,-0.86
2018-02-27T10:54:25.555Z,-0.94
2018-02-27T10:55:25.303Z,-0.98
2018-02-27T10:56:25.592Z,-0.82
2018-02-27T10:57:25.605Z,-0.92
2018-02-27T10:58:25.612Z,-0.85
2018-02-27T10:59:25.605Z,-0.91
2018-02-27T11:00:25.676Z,-0.82
2018-02-27T11:01:25.652Z,-0.86
2018-02-27T11:02:25.760Z,-0.86
2018-02-27T11:03:25.675Z,-0.99
2018-02-27T11:04:25.432Z,-1.02
2018-02-27T11:05:25.701Z,-1.22
2018-02-27T11:06:40.368Z,-1.34
2018-02-27T11:07:25.216Z,-1.51
2018-02-27T11:08:25.741Z,-1.51
2018-02-27T11:10:25.784Z,-1.3
2018-02-27T11:12:25.784Z,-0.98
2018-02-27T11:13:25.807Z,-1.02
2018-02-27T11:14:25.825Z,-1.15
2018-02-27T11:15:25.834Z,-1.22
2018-02-27T11:16:25.863Z,-1.09
2018-02-27T11:17:25.862Z,-1.07
2018-02-27T11:18:25.866Z,-0.97
2018-02-27T11:19:25.880Z,-0.92
2018-02-27T11:20:25.890Z,-0.97
2018-02-27T11:22:25.928Z,-1.15
2018-02-27T11:23:25.956Z,-1.22
2018-02-27T11:24:40.606Z,-1.27
2018-02-27T11:25:25.964Z,-1.3
2018-02-27T11:26:25.989Z,-1.13
2018-02-27T11:27:25.995Z,-1.09
2018-02-27T11:28:26.018Z,-0.91
2018-02-27T11:29:26.016Z,-0.89
2018-02-27T11:30:26.031Z,-0.83
2018-02-27T11:31:26.041Z,-0.67
2018-02-27T11:32:40.702Z,-0.61
2018-02-27T11:33:26.065Z,-0.82
2018-02-27T11:34:26.069Z,-1.05
2018-02-27T11:36:25.857Z,-0.95
2018-02-27T11:38:40.782Z,-1.1
2018-02-27T11:39:26.144Z,-0.98
2018-02-27T11:40:25.909Z,-0.94
2018-02-27T11:41:26.183Z,-0.99
2018-02-27T11:42:26.191Z,-1.31
2018-02-27T11:43:26.297Z,-1.25
2018-02-27T11:44:25.953Z,-1.15
2018-02-27T11:45:26.232Z,-1.22
2018-02-27T11:46:25.809Z,-1.16
2018-02-27T11:47:26.262Z,-1.37
2018-02-27T11:48:26.261Z,-1.58
2018-02-27T11:49:25.747Z,-1.56
2018-02-27T11:50:26.302Z,-1.58
2018-02-27T11:51:26.294Z,-1.54
2018-02-27T11:52:26.062Z,-1.38
2018-02-27T11:53:26.334Z,-1.34
2018-02-27T11:55:26.084Z,-1.52
2018-02-27T11:56:26.150Z,-1.52
2018-02-27T11:57:26.370Z,-1.67
2018-02-27T11:58:26.382Z,-1.51
2018-02-27T11:59:26.394Z,-1.51
2018-02-27T12:00:26.404Z,-1.31
2018-02-27T12:01:26.417Z,-1.25
2018-02-27T12:02:26.202Z,-1.56
2018-02-27T12:03:26.179Z,-1.64
2018-02-27T12:04:26.471Z,-1.46
2018-02-27T12:05:41.137Z,-1.28
2018-02-27T12:06:26.490Z,-1.04
2018-02-27T12:07:26.500Z,-0.79
2018-02-27T12:08:26.498Z,-0.72
2018-02-27T12:09:26.528Z,-0.64
2018-02-27T12:10:41.194Z,-0.6
2018-02-27T12:11:26.558Z,-0.49
2018-02-27T12:12:26.563Z,-0.57
2018-02-27T12:13:26.582Z,-0.6
2018-02-27T12:14:26.674Z,-0.69
2018-02-27T12:16:26.623Z,-0.7
2018-02-27T12:17:26.618Z,-0.75
2018-02-27T12:18:26.626Z,-0.6
2018-02-27T12:19:26.384Z,-0.67
2018-02-27T12:20:26.653Z,-0.85
2018-02-27T12:21:41.319Z,-0.83
2018-02-27T12:22:26.684Z,-0.92
2018-02-27T12:23:26.466Z,-0.92
2018-02-27T12:24:26.451Z,-0.99
2018-02-27T12:25:26.741Z,-1.05
2018-02-27T12:26:41.399Z,-1.15
2018-02-27T12:27:26.747Z,-1.15
2018-02-27T12:28:26.762Z,-1.13
2018-02-27T12:29:41.527Z,-1.3
2018-02-27T12:30:26.776Z,-1.31
2018-02-27T12:31:26.793Z,-1.27
2018-02-27T12:32:26.801Z,-1.2
2018-02-27T12:33:41.477Z,-1.02
2018-02-27T12:34:26.843Z,-0.86
2018-02-27T12:35:26.857Z,-0.91
2018-02-27T12:36:26.606Z,-0.73
2018-02-27T12:37:26.942Z,-0.58
2018-02-27T12:38:41.282Z,-0.54
2018-02-27T12:39:26.636Z,-0.44
2018-02-27T12:40:26.914Z,-0.58
2018-02-27T12:41:41.578Z,-0.6
2018-02-27T12:42:26.669Z,-0.67
2018-02-27T12:43:26.966Z,-0.7
2018-02-27T12:44:26.965Z,-0.8
2018-02-27T12:45:26.975Z,-0.72
2018-02-27T12:46:26.982Z,-0.69
2018-02-27T12:47:26.993Z,-0.69
2018-02-27T12:48:27.013Z,-0.7
2018-02-27T12:49:26.758Z,-0.67
2018-02-27T12:50:27.047Z,-0.67
2018-02-27T12:51:41.445Z,-0.83
2018-02-27T12:52:27.056Z,-0.79
2018-02-27T12:53:27.076Z,-0.67
2018-02-27T12:54:26.820Z,-0.6
2018-02-27T12:55:26.843Z,-0.57
2018-02-27T12:56:27.104Z,-0.34
2018-02-27T12:57:27.124Z,-0.33
2018-02-27T12:58:26.874Z,-0.55
2018-02-27T12:59:27.141Z,-0.64
2018-02-27T13:00:27.161Z,-0.57
2018-02-27T13:01:27.183Z,-0.51
2018-02-27T13:02:27.200Z,-0.52
2018-02-27T13:03:41.910Z,-0.44
2018-02-27T13:04:27.212Z,-0.18
2018-02-27T13:05:26.967Z,0.07
2018-02-27T13:06:27.233Z,0.21
2018-02-27T13:07:27.255Z,0.36
2018-02-27T13:08:27.262Z,0.49
2018-02-27T13:09:27.272Z,0.65
2018-02-27T13:10:27.296Z,0.75
2018-02-27T13:11:27.314Z,0.72
2018-02-27T13:12:27.328Z,0.76
2018-02-27T13:13:41.979Z,0.76
2018-02-27T13:14:27.330Z,0.69
2018-02-27T13:16:27.433Z,0.83
2018-02-27T13:17:27.449Z,0.93
2018-02-27T13:18:27.391Z,0.87
2018-02-27T13:19:27.417Z,0.73
2018-02-27T13:20:27.166Z,0.73
2018-02-27T13:21:27.429Z,0.7
2018-02-27T13:22:42.197Z,0.84
2018-02-27T13:23:27.464Z,0.84
2018-02-27T13:24:27.221Z,0.78
2018-02-27T13:25:27.543Z,0.62
2018-02-27T13:26:27.239Z,0.78
2018-02-27T13:27:27.519Z,0.68
2018-02-27T13:28:27.515Z,0.46
2018-02-27T13:29:42.190Z,0.29
2018-02-27T13:30:27.564Z,0.26
2018-02-27T13:31:27.561Z,0.31
2018-02-27T13:32:27.577Z,0.07
2018-02-27T13:33:27.593Z,-0.08
2018-02-27T13:34:27.345Z,-0.05
2018-02-27T13:35:27.616Z,-0.31
2018-02-27T13:36:27.632Z,-0.29
2018-02-27T13:37:27.646Z,-0.23
2018-02-27T13:38:42.310Z,-0.07
2018-02-27T13:39:27.672Z,-0.11
2018-02-27T13:40:27.705Z,0
2018-02-27T13:41:27.709Z,0.03